Time;durP1;ratioP1;P1;durP2;ratioP2;P2;SDS_P1;SDS_P2;PMS_P1;PMS_P2;Temp;Humidity;BMP_temperature;BMP_pressure;BME280_temperature;BME280_humidity;BME280_pressure;Samples;Min_cycle;Max_cycle;Signal;HPM_P1;HPM_P2
2022/09/06 00:03:57;;;;;;;10.30;8.40;;;19.50;99.90;;;;;;2615419;54;20525;-73
2022/09/06 00:09:44;;;;;;;9.97;9.07;;;19.40;99.90;;;;;;2614475;54;20141;-75
2022/09/06 00:15:45;;;;;;;9.00;8.20;;;19.50;99.90;;;;;;2614250;39;20191;-75
2022/09/06 00:21:34;;;;;;;8.97;8.13;;;19.30;99.90;;;;;;2613393;54;20441;-75
2022/09/06 00:27:21;;;;;;;9.37;8.40;;;19.20;99.90;;;;;;2614422;54;20450;-75
2022/09/06 00:33:08;;;;;;;9.93;8.90;;;19.20;99.90;;;;;;2614906;54;20380;-75
2022/09/06 00:38:57;;;;;;;10.23;8.13;;;19.30;99.90;;;;;;2614535;54;20134;-74
2022/09/06 00:44:44;;;;;;;11.00;8.50;;;19.40;99.90;;;;;;2613653;54;20408;-74
2022/09/06 00:50:32;;;;;;;9.40;8.50;;;19.20;99.90;;;;;;2614201;54;20244;-74
2022/09/06 00:56:20;;;;;;;7.87;7.03;;;19.20;99.90;;;;;;2615217;54;21351;-74
2022/09/06 01:02:09;;;;;;;6.60;5.90;;;19.60;99.90;;;;;;2614763;39;20461;-75
2022/09/06 01:24:41;;;;;;;8.40;5.80;;;20.50;71.00;;;;;;2613773;54;20434;-78
2022/09/06 01:30:33;;;;;;;7.33;6.63;;;20.80;67.00;;;;;;2613634;54;20382;-79
2022/09/06 01:36:26;;;;;;;7.50;6.80;;;20.90;65.10;;;;;;2614591;54;20491;-80
2022/09/06 01:42:24;;;;;;;9.07;7.67;;;20.90;63.00;;;;;;2614949;39;20840;-79
2022/09/06 02:01:17;;;;;;;8.27;7.20;;;20.90;63.30;;;;;;2616062;54;20420;-77
2022/09/06 02:17:42;;;;;;;12.50;8.20;;;20.80;71.40;;;;;;2613999;54;20430;-76
2022/09/06 02:23:35;;;;;;;11.33;6.87;;;20.60;90.50;;;;;;2614002;54;20389;-77
2022/09/06 02:29:23;;;;;;;10.60;9.60;;;20.10;99.90;;;;;;2614795;54;20399;-78
2022/09/06 02:35:15;;;;;;;10.30;9.40;;;19.70;99.90;;;;;;2613782;54;20172;-77
2022/09/06 02:41:03;;;;;;;11.90;10.90;;;19.60;99.90;;;;;;2614181;54;20419;-75
2022/09/06 02:46:50;;;;;;;10.57;9.80;;;19.40;99.90;;;;;;2614611;39;20806;-75
2022/09/06 02:52:38;;;;;;;13.73;11.23;;;19.50;99.90;;;;;;2615187;54;20157;-76
2022/09/06 02:58:26;;;;;;;10.90;9.80;;;19.30;99.90;;;;;;2615149;54;20211;-75
2022/09/06 03:04:14;;;;;;;15.23;10.43;;;19.30;99.90;;;;;;2615272;54;20415;-74
2022/09/06 03:10:02;;;;;;;12.80;10.13;;;19.30;99.90;;;;;;2615553;54;20419;-74
2022/09/06 03:13:06;;;;;;;10.30;9.17;;;19.20;99.90;;;;;;2615787;54;20422;-75
2022/09/06 03:15:32;;;;;;;10.73;9.47;;;19.20;99.90;;;;;;2614599;54;20153;-74
2022/09/06 03:21:21;;;;;;;8.70;7.90;;;19.10;99.90;;;;;;2614322;54;20774;-75
2022/09/06 03:27:09;;;;;;;8.93;8.03;;;19.00;99.90;;;;;;2614543;54;20397;-75
2022/09/06 03:32:58;;;;;;;9.80;8.80;;;18.80;99.90;;;;;;2615119;54;20183;-74
2022/09/06 03:38:46;;;;;;;11.63;9.47;;;18.60;99.90;;;;;;2614977;54;20652;-75
2022/09/06 03:44:34;;;;;;;9.53;8.53;;;18.70;99.90;;;;;;2614795;54;20214;-75
2022/09/06 03:50:22;;;;;;;13.77;8.40;;;18.70;99.90;;;;;;2614177;54;20407;-74
2022/09/06 03:56:10;;;;;;;10.30;8.60;;;18.80;99.90;;;;;;2615065;54;20130;-75
2022/09/06 04:01:57;;;;;;;8.77;7.70;;;18.80;99.90;;;;;;2615632;54;20123;-74
2022/09/06 04:07:45;;;;;;;13.20;8.87;;;18.80;99.90;;;;;;2615011;54;20667;-74
2022/09/06 04:17:51;;;;;;;8.73;7.80;;;18.60;99.90;;;;;;2617280;39;20740;-75
2022/09/06 04:23:38;;;;;;;10.90;8.30;;;18.50;99.90;;;;;;2613302;31;20972;-75
2022/09/06 04:29:25;;;;;;;15.60;9.13;;;18.40;99.90;;;;;;2613766;54;20774;-75
2022/09/06 04:38:38;;;;;;;10.70;8.30;;;18.60;99.90;;;;;;2613712;54;20375;-74
2022/09/06 04:44:25;;;;;;;12.63;9.60;;;18.80;99.90;;;;;;2614455;54;20474;-75
2022/09/06 04:50:12;;;;;;;10.47;8.13;;;18.80;99.90;;;;;;2613666;54;20238;-73
2022/09/06 04:56:00;;;;;;;9.93;8.93;;;18.80;99.90;;;;;;2616190;54;20138;-76
2022/09/06 05:01:48;;;;;;;10.00;8.10;;;18.80;99.90;;;;;;2615189;54;20200;-74
2022/09/06 05:07:36;;;;;;;9.13;8.33;;;18.90;99.90;;;;;;2617883;54;20172;-75
2022/09/06 05:17:41;;;;;;;9.77;8.80;;;18.80;99.90;;;;;;2618224;54;20872;-74
2022/09/06 05:23:29;;;;;;;10.20;7.63;;;18.90;99.90;;;;;;2618258;54;20488;-74
2022/09/06 05:29:16;;;;;;;8.83;7.40;;;18.90;99.90;;;;;;2617770;39;20552;-76
2022/09/06 05:35:04;;;;;;;9.90;8.90;;;19.00;99.90;;;;;;2613609;39;20736;-74
2022/09/06 05:40:52;;;;;;;12.80;8.37;;;19.10;99.90;;;;;;2617829;54;20219;-75
2022/09/06 05:46:44;;;;;;;14.67;9.33;;;19.20;99.90;;;;;;2617619;54;20117;-75
2022/09/06 05:52:33;;;;;;;11.33;9.93;;;19.30;99.90;;;;;;2617662;54;20360;-75
2022/09/06 05:58:21;;;;;;;11.57;8.77;;;19.20;99.90;;;;;;2614052;54;20410;-74
2022/09/06 06:04:09;;;;;;;13.23;8.63;;;19.20;99.90;;;;;;2617586;54;20224;-74
2022/09/06 06:09:56;;;;;;;15.53;8.53;;;19.40;99.90;;;;;;2615073;54;20122;-74
2022/09/06 06:13:12;;;;;;;14.37;8.00;;;20.10;99.90;;;;;;2615669;39;20850;-74
2022/09/06 06:15:38;;;;;;;11.93;8.10;;;20.80;99.90;;;;;;2614881;54;20275;-74
2022/09/06 06:21:30;;;;;;;10.60;7.80;;;21.90;99.90;;;;;;2614165;54;20155;-76
2022/09/06 06:27:18;;;;;;;9.20;6.60;;;22.10;99.40;;;;;;2614846;54;20433;-75
2022/09/06 06:33:06;;;;;;;7.80;7.03;;;22.60;93.10;;;;;;2614348;54;20223;-75
2022/09/06 06:38:54;;;;;;;6.30;5.80;;;23.30;84.00;;;;;;2613451;54;20687;-75
2022/09/06 06:44:42;;;;;;;7.67;6.40;;;23.60;67.50;;;;;;2615822;39;20831;-75
2022/09/06 06:50:30;;;;;;;8.23;6.33;;;24.10;55.40;;;;;;2618108;54;20145;-76
2022/09/06 07:02:43;;;;;;;10.57;6.37;;;24.20;49.90;;;;;;2653497;36;20391;-75
2022/09/06 07:08:31;;;;;;;8.00;7.20;;;24.50;42.90;;;;;;2612268;54;20162;-76
2022/09/06 07:17:44;;;;;;;7.90;7.10;;;24.60;36.20;;;;;;2614959;54;20424;-73
2022/09/06 07:23:31;;;;;;;12.33;7.37;;;25.20;35.70;;;;;;2612153;54;20442;-73
2022/09/06 07:29:19;;;;;;;7.40;6.70;;;26.40;26.80;;;;;;2614892;54;20125;-75
2022/09/06 07:35:07;;;;;;;10.67;6.53;;;26.40;24.10;;;;;;2615878;54;20163;-74
2022/09/06 07:40:57;;;;;;;6.43;5.90;;;26.10;24.70;;;;;;2615982;54;20926;-73
2022/09/06 07:46:45;;;;;;;11.83;6.00;;;26.40;21.40;;;;;;2615535;54;20410;-74
2022/09/06 07:52:32;;;;;;;7.80;6.23;;;26.80;21.20;;;;;;2615881;54;20138;-74
2022/09/06 07:58:20;;;;;;;7.20;4.80;;;27.60;15.80;;;;;;2613565;54;20272;-74
2022/09/06 08:04:12;;;;;;;5.30;5.00;;;27.00;13.10;;;;;;2614990;54;20161;-73
2022/09/06 08:10:01;;;;;;;5.30;4.80;;;27.10;12.30;;;;;;2618139;54;20377;-73
2022/09/06 08:13:10;;;;;;;6.80;5.40;;;27.30;13.50;;;;;;2617785;54;20427;-73
2022/09/06 08:15:36;;;;;;;4.70;4.30;;;26.60;10.90;;;;;;2616788;47;20237;-74
2022/09/06 08:21:26;;;;;;;5.73;5.43;;;27.20;11.00;;;;;;2613958;54;20154;-74
2022/09/06 08:27:14;;;;;;;6.93;5.00;;;26.90;10.00;;;;;;2618098;54;20375;-75
2022/09/06 08:33:02;;;;;;;6.50;5.97;;;28.50;8.60;;;;;;2614582;54;20123;-75
2022/09/06 08:38:49;;;;;;;5.93;5.53;;;29.10;7.60;;;;;;2614618;54;20223;-74
2022/09/06 08:44:41;;;;;;;5.60;5.10;;;28.00;8.60;;;;;;2615848;54;20155;-74
2022/09/06 08:50:30;;;;;;;5.43;5.03;;;27.10;6.70;;;;;;2614994;54;20562;-75
2022/09/06 08:56:24;;;;;;;5.10;4.80;;;27.60;5.80;;;;;;2614251;39;21026;-74
2022/09/06 09:02:14;;;;;;;5.77;4.97;;;28.10;4.30;;;;;;2615331;54;20381;-75
2022/09/06 09:08:23;;;;;;;5.13;4.83;;;27.10;5.20;;;;;;2616477;54;20421;-74
2022/09/06 09:17:42;;;;;;;5.10;4.50;;;28.80;3.40;;;;;;2615963;54;20543;-74
2022/09/06 09:23:30;;;;;;;5.20;4.47;;;28.60;2.90;;;;;;2613717;54;20454;-77
2022/09/06 09:29:18;;;;;;;5.37;5.07;;;28.50;3.20;;;;;;2617737;54;20139;-74
2022/09/06 09:35:19;;;;;;;6.60;4.57;;;28.80;1.70;;;;;;2631880;36;20503;-74
2022/09/06 09:41:09;;;;;;;5.30;4.90;;;29.00;2.10;;;;;;2615199;54;20386;-75
2022/09/06 09:46:56;;;;;;;5.30;5.00;;;28.80;1.00;;;;;;2616564;54;20420;-74
2022/09/06 09:52:44;;;;;;;5.30;4.70;;;29.50;1.80;;;;;;2615705;54;20134;-72
2022/09/06 09:58:35;;;;;;;4.93;4.63;;;28.20;1.00;;;;;;2614860;39;20523;-75
2022/09/06 10:04:34;;;;;;;5.60;4.83;;;29.90;1.00;;;;;;2616089;54;20394;-74
2022/09/06 10:10:24;;;;;;;4.90;4.60;;;31.00;1.00;;;;;;2618403;39;20737;-75
2022/09/06 10:16:12;;;;;;;5.90;4.47;;;28.20;1.00;;;;;;2616375;54;20461;-74
2022/09/06 10:34:59;;;;;;;6.30;4.70;;;29.50;1.00;;;;;;2616187;54;20380;-75
2022/09/06 10:40:53;;;;;;;5.50;5.00;;;31.60;1.00;;;;;;2616847;39;20567;-75
2022/09/06 10:46:44;;;;;;;5.83;5.17;;;30.50;1.00;;;;;;2616763;39;20787;-75
2022/09/06 10:52:38;;;;;;;4.70;4.50;;;30.50;1.00;;;;;;2615864;39;20774;-75
2022/09/06 10:58:31;;;;;;;4.80;4.50;;;29.90;1.00;;;;;;2616393;54;20373;-75
2022/09/06 11:10:51;;;;;;;5.33;4.80;;;31.10;1.00;;;;;;2617524;54;20359;-75
2022/09/06 11:26:53;;;;;;;5.10;4.67;;;31.20;1.00;;;;;;2615653;54;20361;-75
2022/09/06 11:32:47;;;;;;;6.77;4.93;;;32.00;1.00;;;;;;2615627;54;20379;-75
2022/09/06 11:38:35;;;;;;;6.50;5.03;;;30.90;1.00;;;;;;2614828;54;20387;-74
2022/09/06 11:48:57;;;;;;;5.43;5.13;;;30.50;1.00;;;;;;2613009;54;20379;-75
2022/09/06 11:54:46;;;;;;;4.50;4.20;;;30.30;1.00;;;;;;2613953;54;20985;-74
2022/09/06 12:00:33;;;;;;;5.20;4.80;;;30.20;1.00;;;;;;2615961;54;20364;-74
2022/09/06 12:12:57;;;;;;;5.70;5.13;;;30.40;1.00;;;;;;2613996;54;20430;-75
2022/09/06 12:28:55;;;;;;;5.10;4.80;;;31.30;1.00;;;;;;2615920;54;20445;-74
2022/09/06 12:34:43;;;;;;;5.10;4.80;;;31.10;1.00;;;;;;2614096;54;20390;-75
2022/09/06 12:40:39;;;;;;;6.07;4.90;;;31.60;1.00;;;;;;2613512;54;20382;-77
2022/09/06 12:46:29;;;;;;;5.30;4.97;;;31.30;1.00;;;;;;2616393;54;20957;-75
2022/09/06 12:52:18;;;;;;;6.03;5.73;;;32.80;1.00;;;;;;2613357;54;20526;-75
2022/09/06 12:58:08;;;;;;;6.30;5.90;;;30.70;1.00;;;;;;2613335;54;20436;-76
2022/09/06 13:10:25;;;;;;;6.37;5.83;;;30.70;1.00;;;;;;2613326;54;20397;-75
2022/09/06 13:22:48;;;;;;;7.50;6.70;;;32.50;1.00;;;;;;2617937;54;20414;-75
2022/09/06 13:28:36;;;;;;;6.17;5.73;;;31.00;1.00;;;;;;2618115;54;20392;-75
2022/09/06 13:34:33;;;;;;;6.27;5.87;;;30.20;1.00;;;;;;2616204;31;20923;-76
2022/09/06 13:40:41;;;;;;;5.93;5.53;;;31.30;1.00;;;;;;2619894;39;20970;-75
2022/09/06 13:46:30;;;;;;;6.40;5.80;;;31.70;1.00;;;;;;2615737;54;20393;-75
2022/09/06 13:52:18;;;;;;;6.57;6.17;;;32.10;1.00;;;;;;2616213;54;20422;-74
2022/09/06 13:58:07;;;;;;;6.27;5.77;;;31.30;1.00;;;;;;2616225;54;20181;-74
2022/09/06 14:03:55;;;;;;;6.10;5.70;;;30.80;1.00;;;;;;2616476;54;20502;-75
2022/09/06 14:09:43;;;;;;;7.10;6.43;;;31.50;1.00;;;;;;2615686;54;20131;-74
2022/09/06 14:15:31;;;;;;;6.27;5.80;;;31.90;1.00;;;;;;2615908;54;20132;-75
2022/09/06 14:25:18;;;;;;;6.37;5.97;;;32.30;1.00;;;;;;2617645;54;20367;-74
2022/09/06 14:31:10;;;;;;;6.00;5.70;;;34.00;1.00;;;;;;2618092;54;20388;-74
2022/09/06 14:34:13;;;;;;;7.00;6.50;;;33.80;1.00;;;;;;2617680;54;20384;-74
2022/09/06 14:36:39;;;;;;;6.47;5.97;;;32.20;1.00;;;;;;2617122;47;20399;-75
2022/09/06 14:42:27;;;;;;;6.27;5.67;;;33.60;1.00;;;;;;2617427;54;20363;-75
2022/09/06 14:48:14;;;;;;;8.33;5.50;;;33.90;1.00;;;;;;2617513;54;20705;-74
2022/09/06 15:00:17;;;;;;;7.50;6.70;;;35.50;1.00;;;;;;2616777;39;20758;-75
2022/09/06 15:06:07;;;;;;;7.40;6.13;;;33.20;1.00;;;;;;2617556;54;20395;-75
2022/09/06 15:11:57;;;;;;;6.90;6.40;;;34.10;1.00;;;;;;2615544;54;20404;-75
2022/09/06 15:17:45;;;;;;;8.40;5.83;;;34.00;1.00;;;;;;2615048;39;20743;-76
2022/09/06 15:20:48;;;;;;;9.47;6.30;;;33.80;1.00;;;;;;2614469;54;20499;-75
2022/09/06 15:23:14;;;;;;;5.97;5.67;;;36.80;1.00;;;;;;2617951;54;20189;-75
2022/09/06 15:29:02;;;;;;;6.47;5.87;;;35.50;1.00;;;;;;2617784;54;20919;-75
2022/09/06 15:34:51;;;;;;;7.47;5.73;;;36.10;1.00;;;;;;2616272;39;20779;-75
2022/09/06 15:40:39;;;;;;;6.70;5.00;;;36.40;1.00;;;;;;2616640;54;20126;-74
2022/09/06 15:46:40;;;;;;;5.60;5.23;;;34.80;1.00;;;;;;2617010;54;20121;-74
2022/09/06 15:55:57;;;;;;;9.80;5.30;;;36.10;1.00;;;;;;2617978;39;20756;-75
2022/09/06 16:01:45;;;;;;;6.30;5.80;;;34.30;1.00;;;;;;2619189;54;20371;-76
2022/09/06 16:07:36;;;;;;;22.73;20.73;;;35.90;1.00;;;;;;2617076;54;20121;-77
2022/09/06 16:13:30;;;;;;;6.60;6.10;;;35.50;1.00;;;;;;2617201;54;20419;-75
2022/09/06 16:19:18;;;;;;;11.33;7.00;;;35.60;1.00;;;;;;2617066;54;20455;-76
2022/09/06 16:25:06;;;;;;;5.80;5.30;;;36.00;1.00;;;;;;2619306;54;20134;-76
2022/09/06 16:30:54;;;;;;;6.20;5.60;;;35.70;1.00;;;;;;2619394;39;20742;-76
2022/09/06 16:36:42;;;;;;;68.33;62.07;;;32.50;1.00;;;;;;2619069;54;20383;-76
2022/09/06 16:42:32;;;;;;;8.87;8.17;;;34.60;1.00;;;;;;2619133;54;20151;-77
2022/09/06 16:48:20;;;;;;;5.70;5.20;;;35.60;1.00;;;;;;2618922;54;20951;-76
2022/09/06 16:54:09;;;;;;;6.00;5.50;;;35.30;1.00;;;;;;2620429;39;20521;-76
2022/09/06 16:59:57;;;;;;;6.50;5.90;;;34.00;1.00;;;;;;2620411;54;20455;-76
2022/09/06 17:05:49;;;;;;;5.93;5.43;;;33.60;1.00;;;;;;2618296;54;20371;-76
2022/09/06 17:11:40;;;;;;;6.10;5.70;;;32.30;1.00;;;;;;2618092;54;20411;-81
2022/09/06 17:17:27;;;;;;;6.07;5.53;;;29.50;1.00;;;;;;2617904;54;20391;-78
2022/09/06 17:23:15;;;;;;;7.13;5.43;;;28.60;1.00;;;;;;2617052;54;20273;-79
2022/09/06 17:29:03;;;;;;;6.50;5.03;;;28.10;1.00;;;;;;2617339;54;20218;-78
2022/09/06 17:34:51;;;;;;;6.07;5.57;;;27.70;1.00;;;;;;2617609;54;20130;-78
2022/09/06 17:40:39;;;;;;;6.20;5.80;;;27.30;1.00;;;;;;2618052;54;20210;-77
2022/09/06 17:46:27;;;;;;;8.63;6.47;;;26.90;1.60;;;;;;2617053;39;20782;-77
2022/09/06 17:55:41;;;;;;;11.60;6.97;;;26.40;3.10;;;;;;2617294;54;20473;-79
2022/09/06 18:01:31;;;;;;;7.20;6.50;;;26.10;4.50;;;;;;2617075;54;20379;-77
2022/09/06 18:07:19;;;;;;;6.60;6.00;;;25.70;6.20;;;;;;2617190;54;20380;-78
2022/09/06 18:13:07;;;;;;;7.03;6.40;;;25.40;7.10;;;;;;2616896;54;21451;-79
2022/09/06 18:18:57;;;;;;;9.30;7.07;;;25.20;8.80;;;;;;2616962;54;20176;-78
2022/09/06 18:24:45;;;;;;;7.17;6.57;;;25.00;8.80;;;;;;2617314;39;20840;-78
2022/09/06 18:30:33;;;;;;;7.47;6.77;;;24.90;10.30;;;;;;2616235;54;20391;-78
2022/09/06 18:36:21;;;;;;;21.37;8.50;;;24.70;10.70;;;;;;2618505;54;20149;-79
2022/09/06 18:42:10;;;;;;;9.43;6.70;;;24.40;10.90;;;;;;2617549;54;20632;-81
2022/09/06 18:47:58;;;;;;;7.80;6.40;;;24.20;11.80;;;;;;2618370;54;20413;-82
2022/09/06 18:53:33;;;;;;;9.47;6.90;;;24.00;13.30;;;;;;2618547;54;20414;-81
2022/09/06 18:59:21;;;;;;;7.80;6.43;;;23.80;13.40;;;;;;2618598;54;20389;-80
2022/09/06 19:05:09;;;;;;;7.23;6.63;;;23.70;13.40;;;;;;2619229;39;20473;-83
2022/09/06 19:10:59;;;;;;;11.87;6.70;;;23.60;14.90;;;;;;2618566;54;20395;-83
2022/09/06 19:16:50;;;;;;;6.60;6.07;;;23.30;15.40;;;;;;2618170;54;20436;-83
2022/09/06 19:22:38;;;;;;;7.43;6.30;;;23.10;16.30;;;;;;2617745;54;20363;-82
2022/09/06 19:28:26;;;;;;;8.60;7.47;;;23.00;18.30;;;;;;2616517;54;20127;-76
2022/09/06 19:34:15;;;;;;;8.00;7.30;;;22.80;19.20;;;;;;2615801;54;20166;-77
2022/09/06 19:40:04;;;;;;;7.63;6.87;;;22.50;18.20;;;;;;2613838;54;20363;-76
2022/09/06 19:45:51;;;;;;;7.37;6.67;;;22.30;21.10;;;;;;2615053;54;20347;-78
2022/09/06 19:55:41;;;;;;;8.00;7.30;;;22.30;22.40;;;;;;2633941;36;20452;-78
2022/09/06 20:01:31;;;;;;;8.50;6.90;;;22.40;24.70;;;;;;2616218;54;20384;-75
2022/09/06 20:07:19;;;;;;;8.47;7.43;;;22.20;27.90;;;;;;2616475;54;20355;-76
2022/09/06 20:13:07;;;;;;;8.27;7.40;;;22.10;34.00;;;;;;2615272;39;20757;-77
2022/09/06 20:18:57;;;;;;;11.97;8.00;;;21.90;34.00;;;;;;2616536;54;20282;-75
2022/09/06 20:22:00;;;;;;;7.60;6.83;;;21.90;36.40;;;;;;2613773;54;21039;-77
2022/09/06 20:24:27;;;;;;;8.73;7.93;;;21.90;34.40;;;;;;2616077;54;20431;-78
2022/09/06 20:30:14;;;;;;;10.00;8.03;;;21.90;34.20;;;;;;2616158;54;20359;-75
2022/09/06 20:36:05;;;;;;;8.37;6.53;;;22.00;26.00;;;;;;2615432;54;20145;-77
2022/09/06 20:41:53;;;;;;;6.63;6.00;;;22.80;15.80;;;;;;2615728;54;20411;-78
2022/09/06 20:47:41;;;;;;;6.97;6.47;;;23.40;11.70;;;;;;2616232;54;20404;-76
2022/09/06 20:56:57;;;;;;;13.43;6.63;;;23.50;10.30;;;;;;2615290;54;20391;-75
2022/09/06 21:02:45;;;;;;;7.13;6.40;;;23.50;11.30;;;;;;2614516;54;20392;-78
2022/09/06 21:08:35;;;;;;;6.20;5.80;;;23.20;12.30;;;;;;2614285;54;20123;-75
2022/09/06 21:14:23;;;;;;;7.07;6.47;;;23.10;12.30;;;;;;2616851;54;20388;-77
2022/09/06 21:20:11;;;;;;;7.40;6.70;;;23.00;14.30;;;;;;2615558;54;20123;-76
2022/09/06 21:26:02;;;;;;;8.37;7.37;;;22.60;15.10;;;;;;2615848;54;20430;-76
2022/09/06 21:31:50;;;;;;;8.93;7.10;;;22.50;16.90;;;;;;2615934;54;20452;-76
2022/09/06 21:37:38;;;;;;;6.20;5.70;;;22.60;17.00;;;;;;2614900;54;20124;-76
2022/09/06 21:43:26;;;;;;;7.20;5.80;;;23.20;14.40;;;;;;2616109;54;20162;-76
2022/09/06 21:49:15;;;;;;;7.17;6.60;;;23.20;14.40;;;;;;2616390;54;20443;-76
2022/09/06 21:52:25;;;;;;;7.50;5.80;;;23.30;14.40;;;;;;2614941;54;20442;-76
2022/09/06 21:54:50;;;;;;;6.80;6.20;;;23.50;13.90;;;;;;2615237;47;21270;-76
2022/09/06 22:00:39;;;;;;;6.17;5.57;;;23.60;13.30;;;;;;2615118;54;20191;-76
2022/09/06 22:06:29;;;;;;;5.37;5.07;;;23.80;12.70;;;;;;2615293;54;20431;-76
2022/09/06 22:12:18;;;;;;;5.30;5.00;;;23.70;12.80;;;;;;2616266;54;20960;-76
2022/09/06 22:18:06;;;;;;;5.17;4.87;;;23.80;12.40;;;;;;2614975;54;20952;-77
2022/09/06 22:23:58;;;;;;;5.73;5.20;;;23.70;13.00;;;;;;2615623;54;20428;-76
2022/09/06 22:29:45;;;;;;;5.40;5.00;;;23.70;12.80;;;;;;2615872;54;20395;-78
2022/09/06 22:35:33;;;;;;;5.07;4.67;;;23.70;13.00;;;;;;2614920;54;20234;-76
2022/09/06 22:41:21;;;;;;;6.80;5.30;;;23.60;12.90;;;;;;2614546;54;20130;-77
2022/09/06 22:47:10;;;;;;;5.43;5.00;;;23.70;12.50;;;;;;2616127;31;20871;-76
2022/09/06 22:56:57;;;;;;;5.17;4.87;;;23.30;14.00;;;;;;2614820;54;20432;-76
2022/09/06 23:02:45;;;;;;;5.77;5.03;;;23.30;13.50;;;;;;2615769;47;20408;-76
2022/09/06 23:08:35;;;;;;;5.07;4.73;;;23.20;13.90;;;;;;2615584;54;20694;-75
2022/09/06 23:14:22;;;;;;;5.53;5.13;;;23.20;13.40;;;;;;2616172;54;20375;-76
2022/09/06 23:20:10;;;;;;;5.30;5.00;;;23.20;12.60;;;;;;2615855;54;20711;-74
2022/09/06 23:26:03;;;;;;;5.10;4.70;;;23.20;13.00;;;;;;2615635;54;20142;-76
2022/09/06 23:31:51;;;;;;;6.33;5.70;;;22.80;14.50;;;;;;2614729;54;20551;-75
2022/09/06 23:37:39;;;;;;;10.80;5.60;;;22.60;15.60;;;;;;2614725;54;20648;-78
2022/09/06 23:43:27;;;;;;;6.20;5.60;;;22.50;18.00;;;;;;2616274;54;20231;-76
2022/09/06 23:49:16;;;;;;;11.50;4.57;;;22.90;16.40;;;;;;2615207;39;20787;-77
2022/09/06 23:52:26;;;;;;;7.63;4.37;;;21.10;75.10;;;;;;2615028;47;20433;-76
2022/09/06 23:54:52;;;;;;;23.73;8.03;;;20.90;95.90;;;;;;2616435;47;20545;-77
